Pleasantville, Indiana
Current Conditions -  °F | °C
As of 9:55 PM on Tuesday 25 Nov 2014 (Local Time) from KRSV Reporting Station
Overcast Overcast  
Wind Chill: 25°   Ceiling: 2200
Heat Index: 30°   Visibility: 10mi
Dew Point: 24°   Wind: 5mph
Humidity: 77%   Direction: 50°NE
Pressure: 30.23"   Gusts: NA
Location:  38.9636°N, 87.3568°W
Report Text: KRSV 260255Z AUTO 05004KT 10SM OVC022 M01/M04 A3023 RMK AO2 T10101045
Loading
Personal Weather Stations






























Interactive Weather Map New forecast layout! Learn more

10-Day Weather Forecast

Advertisements
Track Severe Weather on mobile